createdAt,value
2023-10-12T00:00:24.247Z,37.43
2023-10-12T00:01:19.716Z,37.63
2023-10-12T00:02:16.690Z,37.76
2023-10-12T00:03:13.702Z,37.44
2023-10-12T00:04:09.234Z,37.64
2023-10-12T00:05:03.017Z,37.74
2023-10-12T00:05:58.518Z,37.84
2023-10-12T00:06:54.002Z,37.71
2023-10-12T00:07:51.227Z,38.07
2023-10-12T00:08:44.269Z,38.07
2023-10-12T00:09:39.611Z,37.65
2023-10-12T00:10:42.217Z,37.96
2023-10-12T00:11:40.501Z,37.98
2023-10-12T00:12:37.045Z,38.10
2023-10-12T00:13:30.504Z,37.76
2023-10-12T00:14:24.208Z,37.88
2023-10-12T00:15:26.878Z,38.10
2023-10-12T00:16:20.621Z,37.59
2023-10-12T00:17:18.088Z,38.22
2023-10-12T00:18:12.015Z,37.71
2023-10-12T00:19:04.898Z,37.85
2023-10-12T00:20:00.254Z,37.31
2023-10-12T00:20:53.389Z,38.01
2023-10-12T00:21:46.129Z,37.63
2023-10-12T00:22:47.496Z,37.52
2023-10-12T00:23:40.223Z,37.88
2023-10-12T00:24:35.560Z,37.48
2023-10-12T00:25:28.337Z,37.92
2023-10-12T00:26:25.377Z,37.47
2023-10-12T00:27:22.083Z,37.88
2023-10-12T00:28:16.430Z,37.73
2023-10-12T00:29:11.983Z,37.51
2023-10-12T00:30:05.841Z,37.58
2023-10-12T00:31:06.981Z,37.39
2023-10-12T00:32:01.039Z,37.24
2023-10-12T00:32:55.763Z,37.56
2023-10-12T00:33:54.041Z,37.64
2023-10-12T00:34:47.523Z,38.01
2023-10-12T00:35:41.024Z,37.67
2023-10-12T00:36:38.677Z,38.06
2023-10-12T00:37:33.611Z,37.68
2023-10-12T00:38:30.824Z,37.81
2023-10-12T00:39:31.315Z,37.48
2023-10-12T00:40:32.416Z,37.58
2023-10-12T00:41:26.553Z,37.35
2023-10-12T00:42:30.514Z,37.41
2023-10-12T00:43:23.641Z,37.80
2023-10-12T00:44:20.772Z,37.54
2023-10-12T00:45:15.563Z,37.75
2023-10-12T00:46:22.721Z,37.80
2023-10-12T00:47:30.950Z,37.44
2023-10-12T00:48:30.853Z,37.94
2023-10-12T00:49:28.583Z,37.65
2023-10-12T00:50:21.458Z,37.48
2023-10-12T00:51:18.012Z,37.46
2023-10-12T00:52:22.610Z,37.44
2023-10-12T00:53:23.968Z,37.56
2023-10-12T00:54:42.333Z,37.69
2023-10-12T00:55:38.278Z,37.78
2023-10-12T00:56:33.783Z,37.61
2023-10-12T00:57:26.733Z,37.49
2023-10-12T00:58:23.502Z,37.76
2023-10-12T00:59:18.867Z,37.66
2023-10-12T01:00:17.071Z,37.61
2023-10-12T01:01:10.748Z,37.70
2023-10-12T01:02:09.957Z,37.35
2023-10-12T01:03:29.085Z,37.32
2023-10-12T01:04:24.430Z,37.11
2023-10-12T01:05:19.493Z,36.91
2023-10-12T01:06:22.640Z,37.04
2023-10-12T01:07:22.806Z,37.20
2023-10-12T01:08:20.360Z,36.95
2023-10-12T01:09:22.465Z,36.98
2023-10-12T01:10:19.267Z,37.64
2023-10-12T01:11:19.254Z,36.93
2023-10-12T01:12:18.877Z,37.08
2023-10-12T01:13:11.661Z,37.07
2023-10-12T01:14:16.557Z,37.19
2023-10-12T01:15:12.863Z,36.89
2023-10-12T01:16:17.835Z,36.70
2023-10-12T01:17:17.604Z,37.08
2023-10-12T01:18:14.409Z,36.89
2023-10-12T01:19:07.276Z,36.77
2023-10-12T01:20:12.311Z,37.26
2023-10-12T01:21:05.043Z,36.69
2023-10-12T01:22:09.406Z,36.59
2023-10-12T01:23:02.117Z,36.73
2023-10-12T01:23:54.852Z,36.59
2023-10-12T01:24:59.941Z,37.19
2023-10-12T01:25:52.685Z,36.64
2023-10-12T01:26:47.969Z,36.74
2023-10-12T01:27:45.237Z,36.67
2023-10-12T01:28:39.300Z,36.99
2023-10-12T01:29:32.596Z,36.81
2023-10-12T01:30:29.016Z,36.85
2023-10-12T01:31:29.688Z,36.96
2023-10-12T01:32:25.480Z,36.76
2023-10-12T01:33:20.925Z,37.05
2023-10-12T01:34:15.238Z,36.61
2023-10-12T01:35:11.950Z,36.81
2023-10-12T01:36:07.920Z,37.29
2023-10-12T01:37:04.726Z,37.24
2023-10-12T01:38:01.991Z,37.16
2023-10-12T01:39:12.510Z,36.59
2023-10-12T01:40:13.751Z,37.14
2023-10-12T01:41:11.474Z,36.75
2023-10-12T01:42:05.458Z,36.69
2023-10-12T01:43:02.501Z,36.88
2023-10-12T01:43:55.662Z,36.65
2023-10-12T01:44:48.607Z,36.96
2023-10-12T01:45:49.051Z,36.71
2023-10-12T01:46:42.539Z,36.93
2023-10-12T01:47:38.928Z,36.96
2023-10-12T01:48:35.410Z,36.40
2023-10-12T01:49:28.176Z,36.95
2023-10-12T01:50:20.900Z,36.83
2023-10-12T01:51:25.962Z,36.64
2023-10-12T01:52:21.400Z,36.91
2023-10-12T01:53:25.897Z,36.83
2023-10-12T01:54:26.247Z,36.56
2023-10-12T01:55:30.037Z,36.95
2023-10-12T01:56:29.761Z,36.59
2023-10-12T01:57:31.774Z,36.59
2023-10-12T01:58:29.469Z,36.54
2023-10-12T01:59:22.568Z,36.93
2023-10-12T02:00:17.312Z,36.80
2023-10-12T02:01:20.424Z,36.63
2023-10-12T02:02:15.468Z,36.88
2023-10-12T02:03:19.073Z,37.10
2023-10-12T02:04:15.105Z,36.99
2023-10-12T02:05:11.281Z,36.68
2023-10-12T02:06:06.253Z,37.05
2023-10-12T02:07:03.900Z,36.86
2023-10-12T02:08:00.151Z,36.54
2023-10-12T02:08:57.290Z,36.78
2023-10-12T02:09:53.709Z,37.05
2023-10-12T02:10:57.155Z,36.74
2023-10-12T02:11:55.087Z,36.79
2023-10-12T02:12:51.474Z,36.98
2023-10-12T02:13:48.901Z,36.99
2023-10-12T02:14:44.815Z,36.95
2023-10-12T02:15:39.247Z,37.15
2023-10-12T02:16:33.096Z,36.75
2023-10-12T02:17:36.799Z,37.23
2023-10-12T02:18:32.194Z,36.44
2023-10-12T02:19:40.125Z,36.83
2023-10-12T02:20:36.311Z,36.88
2023-10-12T02:21:29.296Z,37.40
2023-10-12T02:22:26.353Z,37.39
2023-10-12T02:23:23.097Z,37.39
2023-10-12T02:24:16.170Z,36.88
2023-10-12T02:25:20.059Z,36.92
2023-10-12T02:26:29.865Z,37.09
2023-10-12T02:27:25.922Z,36.71
2023-10-12T02:28:24.344Z,37.20
2023-10-12T02:29:19.967Z,36.84
2023-10-12T02:30:20.099Z,36.80
2023-10-12T02:31:14.418Z,37.21
2023-10-12T02:32:24.494Z,37.51
2023-10-12T02:33:19.850Z,37.01
2023-10-12T02:34:18.798Z,37.44
2023-10-12T02:35:16.683Z,37.26
2023-10-12T02:36:11.279Z,37.54
2023-10-12T02:37:18.023Z,37.17
2023-10-12T02:38:17.311Z,37.46
2023-10-12T02:39:12.597Z,37.53
2023-10-12T02:40:11.938Z,37.01
2023-10-12T02:41:05.250Z,37.05
2023-10-12T02:42:12.288Z,37.22
2023-10-12T02:43:10.730Z,37.54
2023-10-12T02:44:13.185Z,37.12
2023-10-12T02:45:22.779Z,37.54
2023-10-12T02:46:23.587Z,37.72
2023-10-12T02:47:19.817Z,37.39
2023-10-12T02:48:24.890Z,37.22
2023-10-12T02:49:17.777Z,37.11
2023-10-12T02:50:28.962Z,37.83
2023-10-12T02:51:24.314Z,37.37
2023-10-12T02:52:17.676Z,36.99
2023-10-12T02:53:13.914Z,37.28
2023-10-12T02:54:07.134Z,37.07
2023-10-12T02:55:09.794Z,37.05
2023-10-12T02:56:05.763Z,36.96
2023-10-12T02:56:58.524Z,37.60
2023-10-12T02:57:55.143Z,37.55
2023-10-12T02:58:50.541Z,37.33
2023-10-12T02:59:43.277Z,37.41
2023-10-12T03:00:37.359Z,37.63
2023-10-12T03:01:32.743Z,37.31
2023-10-12T03:02:33.793Z,37.09
2023-10-12T03:03:35.029Z,37.27
2023-10-12T03:04:30.406Z,37.21
2023-10-12T03:05:33.847Z,37.49
2023-10-12T03:06:34.355Z,37.30
2023-10-12T03:07:27.134Z,37.13
2023-10-12T03:08:21.302Z,37.73
2023-10-12T03:09:18.795Z,37.49
2023-10-12T03:10:25.423Z,37.56
2023-10-12T03:11:21.649Z,37.76
2023-10-12T03:12:17.625Z,37.20
2023-10-12T03:13:21.167Z,37.59
2023-10-12T03:14:18.008Z,37.49
2023-10-12T03:15:14.349Z,37.50
2023-10-12T03:16:14.586Z,37.42
2023-10-12T03:17:10.769Z,37.92
2023-10-12T03:18:04.418Z,37.61
2023-10-12T03:19:02.029Z,37.58
2023-10-12T03:20:17.017Z,37.61
2023-10-12T03:21:13.102Z,37.45
2023-10-12T03:22:21.159Z,37.56
2023-10-12T03:23:15.305Z,37.59
2023-10-12T03:24:11.814Z,37.29
2023-10-12T03:25:21.132Z,37.36
2023-10-12T03:26:19.690Z,37.61
2023-10-12T03:27:15.210Z,37.42
2023-10-12T03:28:14.665Z,37.27
2023-10-12T03:29:20.161Z,37.05
2023-10-12T03:30:19.247Z,37.44
2023-10-12T03:31:24.419Z,37.32
2023-10-12T03:32:24.740Z,37.68
2023-10-12T03:33:17.765Z,37.36
2023-10-12T03:34:31.430Z,37.39
2023-10-12T03:35:34.737Z,37.71
2023-10-12T03:36:33.607Z,37.42
2023-10-12T03:37:41.152Z,37.34
2023-10-12T03:38:36.679Z,37.42
2023-10-12T03:39:30.361Z,37.42
2023-10-12T03:40:38.038Z,37.56
2023-10-12T03:41:48.099Z,37.12
2023-10-12T03:42:45.044Z,37.37
2023-10-12T03:43:41.340Z,37.11
2023-10-12T03:44:49.537Z,37.39
2023-10-12T03:46:01.298Z,36.87
2023-10-12T03:47:06.165Z,37.56
2023-10-12T03:48:05.789Z,37.17
2023-10-12T03:49:11.149Z,37.32
2023-10-12T03:50:08.304Z,37.29
2023-10-12T03:51:12.875Z,37.17
2023-10-12T03:52:15.323Z,37.61
2023-10-12T03:53:08.020Z,37.25
2023-10-12T03:54:12.652Z,37.30
2023-10-12T03:55:20.469Z,37.19
2023-10-12T03:56:15.983Z,37.49
2023-10-12T03:57:20.688Z,37.10
2023-10-12T03:58:16.818Z,37.04
2023-10-12T03:59:13.770Z,37.33
2023-10-12T04:00:22.964Z,37.32
2023-10-12T04:01:25.537Z,37.46
2023-10-12T04:02:18.348Z,37.52
2023-10-12T04:03:20.250Z,36.85
2023-10-12T04:04:22.534Z,37.38
2023-10-12T04:05:17.641Z,37.30
2023-10-12T04:06:24.988Z,37.22
2023-10-12T04:07:18.329Z,37.20
2023-10-12T04:08:20.784Z,37.03
2023-10-12T04:09:22.819Z,36.94
2023-10-12T04:10:16.228Z,37.13
2023-10-12T04:11:36.129Z,36.95
2023-10-12T04:12:50.519Z,37.16
2023-10-12T04:13:58.444Z,37.49
2023-10-12T04:14:57.633Z,37.19
2023-10-12T04:16:05.223Z,37.23
2023-10-12T04:17:09.669Z,37.09
2023-10-12T04:18:08.977Z,36.65
2023-10-12T04:19:04.809Z,37.29
2023-10-12T04:20:14.137Z,37.47
2023-10-12T04:21:06.857Z,36.73
2023-10-12T04:22:18.224Z,37.04
2023-10-12T04:23:25.900Z,36.89
2023-10-12T04:24:29.039Z,36.82
2023-10-12T04:25:25.487Z,36.92
2023-10-12T04:26:39.845Z,37.05
2023-10-12T04:27:43.324Z,37.27
2023-10-12T04:28:39.262Z,37.14
2023-10-12T04:29:32.411Z,36.76
2023-10-12T04:30:35.835Z,37.02
2023-10-12T04:31:50.853Z,37.42
2023-10-12T04:32:55.175Z,36.93
2023-10-12T04:33:57.915Z,36.83
2023-10-12T04:34:50.964Z,37.15
2023-10-12T04:36:11.243Z,37.03
2023-10-12T04:37:09.199Z,36.89
2023-10-12T04:38:10.144Z,37.11
2023-10-12T04:39:18.125Z,36.42
2023-10-12T04:40:33.940Z,36.66
2023-10-12T04:41:39.679Z,36.93
2023-10-12T04:42:36.264Z,36.43
2023-10-12T04:43:31.815Z,36.57
2023-10-12T04:44:37.363Z,36.62
2023-10-12T04:45:31.969Z,36.35
2023-10-12T04:46:28.011Z,36.45
2023-10-12T04:47:25.764Z,36.51
2023-10-12T04:48:22.589Z,36.69
2023-10-12T04:49:30.116Z,36.79
2023-10-12T04:50:28.868Z,36.42
2023-10-12T04:51:22.934Z,36.57
2023-10-12T04:52:26.108Z,36.28
2023-10-12T04:53:20.145Z,36.55
2023-10-12T04:54:19.001Z,36.54
2023-10-12T04:55:30.222Z,36.46
2023-10-12T04:56:24.970Z,36.88
2023-10-12T04:57:17.952Z,36.61
2023-10-12T04:58:32.298Z,36.81
2023-10-12T04:59:28.583Z,36.85
2023-10-12T05:00:26.273Z,36.85
2023-10-12T05:01:25.785Z,36.93
2023-10-12T05:02:31.171Z,36.82
2023-10-12T05:03:38.224Z,36.82
2023-10-12T05:04:36.828Z,36.85
2023-10-12T05:05:44.680Z,36.56
2023-10-12T05:06:47.741Z,36.83
2023-10-12T05:07:55.617Z,36.56
2023-10-12T05:08:56.033Z,36.35
2023-10-12T05:09:50.647Z,36.54
2023-10-12T05:10:48.110Z,36.71
2023-10-12T05:11:43.430Z,36.68
2023-10-12T05:12:36.137Z,36.49
2023-10-12T05:13:34.641Z,36.93
2023-10-12T05:14:27.462Z,36.47
2023-10-12T05:15:21.970Z,36.80
2023-10-12T05:16:18.704Z,36.78
2023-10-12T05:17:11.632Z,36.92
2023-10-12T05:18:06.355Z,36.62
2023-10-12T05:19:01.729Z,36.93
2023-10-12T05:19:54.507Z,36.84
2023-10-12T05:20:47.228Z,36.99
2023-10-12T05:21:43.068Z,36.70
2023-10-12T05:22:36.637Z,36.54
2023-10-12T05:23:30.755Z,36.84
2023-10-12T05:24:26.414Z,37.17
2023-10-12T05:25:19.421Z,36.87
2023-10-12T05:26:12.187Z,36.78
2023-10-12T05:27:21.276Z,37.10
2023-10-12T05:28:15.497Z,36.49
2023-10-12T05:29:35.585Z,36.79
2023-10-12T05:30:28.601Z,36.65
2023-10-12T05:31:29.610Z,36.66
2023-10-12T05:32:38.264Z,36.52
2023-10-12T05:33:39.717Z,36.83
2023-10-12T05:34:46.393Z,36.53
2023-10-12T05:35:54.187Z,36.37
2023-10-12T05:36:47.056Z,36.44
2023-10-12T05:37:49.734Z,37.22
2023-10-12T05:38:50.103Z,36.71
2023-10-12T05:39:48.699Z,36.80
2023-10-12T05:40:45.788Z,36.47
2023-10-12T05:41:38.526Z,37.00
2023-10-12T05:42:40.867Z,36.29
2023-10-12T05:43:35.104Z,36.70
2023-10-12T05:44:33.027Z,36.54
2023-10-12T05:45:32.719Z,36.81
2023-10-12T05:46:30.813Z,36.46
2023-10-12T05:47:31.532Z,36.61
2023-10-12T05:48:24.370Z,36.83
2023-10-12T05:49:17.776Z,37.01
2023-10-12T05:50:16.887Z,36.54
2023-10-12T05:51:11.536Z,36.88
2023-10-12T05:52:08.757Z,37.17
2023-10-12T05:53:01.572Z,36.71
2023-10-12T05:54:03.418Z,37.16
2023-10-12T05:54:59.790Z,36.80
2023-10-12T05:55:58.190Z,36.47
2023-10-12T05:56:51.277Z,36.32
2023-10-12T05:57:46.615Z,36.61
2023-10-12T05:58:39.807Z,36.49
2023-10-12T05:59:39.903Z,36.54
2023-10-12T06:00:37.417Z,37.26
2023-10-12T06:02:33.620Z,36.86
2023-10-12T06:03:29.199Z,37.04
2023-10-12T06:04:22.958Z,37.48
2023-10-12T06:05:18.852Z,37.39
2023-10-12T06:06:11.908Z,37.68
2023-10-12T06:07:07.338Z,37.37
2023-10-12T06:08:02.316Z,37.40
2023-10-12T06:08:55.002Z,37.22
2023-10-12T06:09:54.657Z,37.06
2023-10-12T06:10:47.586Z,37.42
2023-10-12T06:11:45.800Z,37.78
2023-10-12T06:12:40.424Z,37.35
2023-10-12T06:13:42.716Z,37.37
2023-10-12T06:14:39.615Z,37.30
2023-10-12T06:15:41.561Z,37.73
2023-10-12T06:16:41.453Z,37.24
2023-10-12T06:17:41.229Z,37.78
2023-10-12T06:18:38.962Z,37.36
2023-10-12T06:19:36.361Z,36.90
2023-10-12T06:20:32.289Z,37.36
2023-10-12T06:21:27.695Z,36.91
2023-10-12T06:22:21.621Z,36.97
2023-10-12T06:23:18.101Z,36.65
2023-10-12T06:24:12.981Z,37.34
2023-10-12T06:25:12.230Z,37.25
2023-10-12T06:26:08.516Z,37.15
2023-10-12T06:27:04.086Z,37.08
2023-10-12T06:28:04.040Z,36.88
2023-10-12T06:29:00.581Z,36.88
2023-10-12T06:29:56.751Z,36.93
2023-10-12T06:30:53.618Z,36.90
2023-10-12T06:31:53.460Z,37.66
2023-10-12T06:32:50.357Z,37.41
2023-10-12T06:33:43.639Z,37.34
2023-10-12T06:34:37.207Z,37.78
2023-10-12T06:35:35.535Z,38.10
2023-10-12T06:36:38.681Z,38.05
2023-10-12T06:37:46.493Z,37.37
2023-10-12T06:38:49.198Z,37.76
2023-10-12T06:39:56.763Z,37.84
2023-10-12T06:40:50.190Z,37.63
2023-10-12T06:41:57.742Z,38.38
2023-10-12T06:43:10.613Z,38.14
2023-10-12T06:44:15.006Z,38.12
2023-10-12T06:45:11.100Z,37.66
2023-10-12T06:46:05.789Z,38.41
2023-10-12T06:46:59.080Z,38.91
2023-10-12T06:48:10.684Z,38.88
2023-10-12T06:49:04.701Z,38.38
2023-10-12T06:50:01.634Z,38.53
2023-10-12T06:51:04.321Z,38.39
2023-10-12T06:52:02.438Z,37.94
2023-10-12T06:52:59.770Z,38.75
2023-10-12T06:53:53.825Z,39.06
2023-10-12T06:54:51.058Z,38.66
2023-10-12T06:55:58.363Z,39.12
2023-10-12T06:56:52.963Z,38.73
2023-10-12T06:57:45.690Z,38.98
2023-10-12T06:58:41.018Z,38.99
2023-10-12T06:59:36.502Z,39.12
2023-10-12T07:00:35.815Z,38.97
2023-10-12T07:01:33.659Z,39.11
2023-10-12T07:02:29.274Z,39.02
2023-10-12T07:03:23.854Z,39.00
2023-10-12T07:04:17.294Z,40.01
2023-10-12T07:05:12.780Z,39.52
2023-10-12T07:06:07.679Z,40.08
2023-10-12T07:07:02.211Z,39.31
2023-10-12T07:07:59.520Z,39.35
2023-10-12T07:08:52.712Z,39.14
2023-10-12T07:09:47.943Z,39.16
2023-10-12T07:10:52.911Z,38.85
2023-10-12T07:11:47.308Z,39.14
2023-10-12T07:12:50.286Z,38.78
2023-10-12T07:13:43.065Z,39.58
2023-10-12T07:14:40.267Z,39.64
2023-10-12T07:15:42.034Z,39.21
2023-10-12T07:16:41.968Z,39.30
2023-10-12T07:17:37.447Z,39.58
2023-10-12T07:18:30.189Z,39.67
2023-10-12T07:19:26.177Z,39.96
2023-10-12T07:20:29.260Z,39.75
2023-10-12T07:21:24.861Z,38.75
2023-10-12T07:22:20.163Z,39.94
2023-10-12T07:23:35.396Z,40.09
2023-10-12T07:24:28.757Z,39.67
2023-10-12T07:25:25.014Z,40.25
2023-10-12T07:26:17.791Z,39.74
2023-10-12T07:27:19.798Z,40.22
2023-10-12T07:28:19.769Z,40.38
2023-10-12T07:29:20.741Z,39.40
2023-10-12T07:30:32.087Z,40.20
2023-10-12T07:31:42.887Z,39.95
2023-10-12T07:32:40.084Z,40.08
2023-10-12T07:33:35.702Z,40.30
2023-10-12T07:34:32.911Z,40.23
2023-10-12T07:35:36.271Z,40.22
2023-10-12T07:36:50.080Z,40.41
2023-10-12T07:37:45.580Z,40.23
2023-10-12T07:38:38.299Z,40.51
2023-10-12T07:39:40.144Z,40.67
2023-10-12T07:40:42.452Z,39.53
2023-10-12T07:41:42.708Z,40.47
2023-10-12T07:42:37.823Z,40.32
2023-10-12T07:43:36.639Z,39.84
2023-10-12T07:44:30.299Z,39.49
2023-10-12T07:45:29.534Z,40.21
2023-10-12T07:46:26.820Z,39.77
2023-10-12T07:47:33.179Z,39.07
2023-10-12T07:48:31.909Z,39.96
2023-10-12T07:49:38.995Z,40.18
2023-10-12T07:50:39.138Z,39.77
2023-10-12T07:51:52.164Z,40.09
2023-10-12T07:52:55.079Z,40.42
2023-10-12T07:53:51.144Z,39.90
2023-10-12T07:55:00.940Z,39.96
2023-10-12T07:56:02.018Z,40.45
2023-10-12T07:56:55.189Z,40.25
2023-10-12T07:57:50.745Z,40.37
2023-10-12T07:58:44.328Z,40.71
2023-10-12T07:59:40.032Z,40.34
2023-10-12T08:00:42.906Z,40.79
2023-10-12T08:01:48.509Z,40.27
2023-10-12T08:02:59.137Z,40.35
2023-10-12T08:03:59.954Z,40.64
2023-10-12T08:04:59.503Z,40.55
2023-10-12T08:05:58.412Z,40.63
2023-10-12T08:06:51.538Z,40.71
2023-10-12T08:08:08.898Z,40.69
2023-10-12T08:09:06.514Z,40.98
2023-10-12T08:10:11.313Z,40.83
2023-10-12T08:11:13.035Z,40.71
2023-10-12T08:12:25.585Z,40.52
2023-10-12T08:13:27.886Z,40.70
2023-10-12T08:14:40.798Z,40.91
2023-10-12T08:15:51.305Z,40.99
2023-10-12T08:17:02.178Z,41.21
2023-10-12T08:18:14.380Z,40.90
2023-10-12T08:19:22.110Z,40.75
2023-10-12T08:20:29.740Z,41.10
2023-10-12T08:21:25.638Z,40.88
2023-10-12T08:22:27.526Z,40.94
2023-10-12T08:23:20.250Z,40.90
2023-10-12T08:24:24.082Z,40.76
2023-10-12T08:25:29.131Z,40.93
2023-10-12T08:26:36.631Z,40.54
2023-10-12T08:27:44.841Z,40.90
2023-10-12T08:28:39.096Z,40.38
2023-10-12T08:29:46.814Z,40.44
2023-10-12T08:30:50.003Z,40.42
2023-10-12T08:31:45.130Z,40.92
2023-10-12T08:32:57.352Z,40.28
2023-10-12T08:33:59.715Z,40.71
2023-10-12T08:35:07.523Z,40.83
2023-10-12T08:36:24.852Z,40.57
2023-10-12T08:37:20.535Z,40.62
2023-10-12T08:38:16.662Z,40.30
2023-10-12T08:39:10.303Z,40.41
2023-10-12T08:40:09.588Z,40.96
2023-10-12T08:41:43.770Z,40.91
2023-10-12T08:42:55.673Z,40.97
2023-10-12T08:43:57.656Z,41.10
2023-10-12T08:44:54.999Z,41.00
2023-10-12T08:45:47.857Z,41.44
2023-10-12T08:46:53.413Z,41.36
2023-10-12T08:47:50.166Z,41.53
2023-10-12T08:48:54.478Z,41.05
2023-10-12T08:49:54.433Z,41.29
2023-10-12T08:50:59.761Z,41.13
2023-10-12T08:52:09.630Z,41.55
2023-10-12T08:53:05.360Z,41.27
2023-10-12T08:54:02.052Z,41.33
2023-10-12T08:55:05.199Z,41.34
2023-10-12T08:55:58.088Z,41.17
2023-10-12T08:56:54.579Z,41.37
2023-10-12T08:57:56.611Z,41.08
2023-10-12T08:58:53.018Z,41.08
2023-10-12T09:00:10.484Z,40.97
2023-10-12T09:01:14.524Z,41.33
2023-10-12T09:02:20.451Z,41.37
2023-10-12T09:03:26.379Z,41.36
2023-10-12T09:04:28.689Z,41.28
2023-10-12T09:05:26.782Z,41.32
2023-10-12T09:06:38.177Z,41.42
2023-10-12T09:07:42.001Z,41.29
2023-10-12T09:08:40.886Z,41.32
2023-10-12T09:09:48.638Z,41.71
2023-10-12T09:10:56.810Z,41.45
2023-10-12T09:12:01.554Z,41.71
2023-10-12T09:12:55.153Z,41.49
2023-10-12T09:13:50.491Z,41.75
2023-10-12T09:14:46.682Z,41.18
2023-10-12T09:15:47.560Z,41.51
2023-10-12T09:16:45.274Z,41.22
2023-10-12T09:17:42.510Z,41.28
2023-10-12T09:18:45.275Z,41.53
2023-10-12T09:19:46.272Z,41.42
2023-10-12T09:20:42.480Z,41.62
2023-10-12T09:21:43.649Z,41.32
2023-10-12T09:22:36.996Z,41.11
2023-10-12T09:23:40.419Z,41.50
2023-10-12T09:24:38.223Z,41.13
2023-10-12T09:26:03.367Z,41.37
2023-10-12T09:27:02.880Z,41.49
2023-10-12T09:27:58.218Z,41.54
2023-10-12T09:29:08.872Z,41.62
2023-10-12T09:30:05.427Z,41.44
2023-10-12T09:31:01.745Z,41.37
2023-10-12T09:32:13.273Z,41.43
2023-10-12T09:33:12.823Z,41.32
2023-10-12T09:34:33.106Z,41.30
2023-10-12T09:35:35.354Z,41.59
2023-10-12T09:36:30.685Z,41.50
2023-10-12T09:37:30.303Z,41.67
2023-10-12T09:38:23.105Z,41.41
2023-10-12T09:39:16.378Z,41.29
2023-10-12T09:40:26.004Z,41.31
2023-10-12T09:41:27.161Z,41.76
2023-10-12T09:42:31.738Z,41.56
2023-10-12T09:43:26.648Z,41.42
2023-10-12T09:44:27.379Z,41.65
2023-10-12T09:45:33.735Z,41.46
2023-10-12T09:46:29.341Z,41.49
2023-10-12T09:47:27.232Z,41.92
2023-10-12T09:48:30.759Z,41.42
2023-10-12T09:49:28.901Z,41.78
2023-10-12T09:50:28.779Z,41.86
2023-10-12T09:51:21.794Z,41.68
2023-10-12T09:52:23.174Z,41.76
2023-10-12T09:53:23.632Z,41.51
2023-10-12T09:54:29.243Z,41.99
2023-10-12T09:55:26.775Z,41.61
2023-10-12T09:56:26.243Z,42.04
2023-10-12T09:57:24.734Z,42.01
2023-10-12T09:58:23.729Z,42.06
2023-10-12T09:59:22.247Z,41.56
2023-10-12T10:00:29.409Z,41.76
2023-10-12T10:01:46.780Z,41.89
2023-10-12T10:02:43.700Z,41.74
2023-10-12T10:03:39.170Z,41.66
2023-10-12T10:04:36.617Z,41.68
2023-10-12T10:05:51.857Z,42.06
2023-10-12T10:06:53.077Z,41.75
2023-10-12T10:07:54.521Z,42.12
2023-10-12T10:09:03.347Z,42.13
2023-10-12T10:10:00.465Z,42.12
2023-10-12T10:10:58.882Z,41.94
2023-10-12T10:12:01.369Z,41.74
2023-10-12T10:12:56.692Z,42.17
2023-10-12T10:13:54.381Z,42.21
2023-10-12T10:14:48.829Z,41.93
2023-10-12T10:15:57.282Z,41.75
2023-10-12T10:16:59.509Z,41.68
2023-10-12T10:17:57.792Z,42.14
2023-10-12T10:18:58.286Z,41.73
2023-10-12T10:20:13.410Z,41.73
2023-10-12T10:21:09.476Z,41.70
2023-10-12T10:22:09.402Z,41.94
2023-10-12T10:23:13.552Z,41.96
2023-10-12T10:24:13.697Z,42.02
2023-10-12T10:25:18.809Z,42.25
2023-10-12T10:26:18.335Z,42.26
2023-10-12T10:27:12.317Z,42.07
2023-10-12T10:28:11.901Z,42.11
2023-10-12T10:29:06.629Z,42.37
2023-10-12T10:29:59.785Z,42.16
2023-10-12T10:31:01.352Z,42.13
2023-10-12T10:31:54.435Z,41.94
2023-10-12T10:33:10.500Z,41.90
2023-10-12T10:34:08.220Z,42.36
2023-10-12T10:35:07.333Z,42.29
2023-10-12T10:36:02.105Z,41.92
2023-10-12T10:36:59.123Z,42.45
2023-10-12T10:37:59.732Z,42.19
2023-10-12T10:38:57.976Z,42.11
2023-10-12T10:39:50.873Z,42.24
2023-10-12T10:40:47.132Z,42.03
2023-10-12T10:41:47.608Z,42.46
2023-10-12T10:42:46.326Z,42.01
2023-10-12T10:43:41.958Z,42.04
2023-10-12T10:44:38.127Z,42.12
2023-10-12T10:45:30.841Z,42.19
2023-10-12T10:46:28.562Z,42.36
2023-10-12T10:47:27.437Z,42.55
2023-10-12T10:48:51.717Z,42.38
2023-10-12T10:49:35.880Z,42.29
2023-10-12T10:50:34.966Z,41.96
2023-10-12T10:51:29.526Z,42.69
2023-10-12T10:52:27.753Z,42.59
2023-10-12T10:53:21.471Z,42.54
2023-10-12T10:54:20.387Z,42.20
2023-10-12T10:55:25.526Z,42.14
2023-10-12T10:56:18.291Z,42.59
2023-10-12T10:57:17.214Z,42.18
2023-10-12T10:58:15.892Z,42.12
2023-10-12T10:59:13.702Z,42.48
2023-10-12T11:00:16.490Z,42.64
2023-10-12T11:01:14.096Z,42.43
2023-10-12T11:02:12.999Z,42.53
2023-10-12T11:03:06.340Z,42.50
2023-10-12T11:04:03.116Z,42.37
2023-10-12T11:04:58.960Z,42.48
2023-10-12T11:05:54.821Z,42.29
2023-10-12T11:06:48.787Z,42.63
2023-10-12T11:07:52.307Z,42.63
2023-10-12T11:08:54.629Z,42.41
2023-10-12T11:10:07.204Z,42.51
2023-10-12T11:11:15.144Z,42.52
2023-10-12T11:12:11.388Z,42.33
2023-10-12T11:13:06.571Z,42.85
2023-10-12T11:14:00.724Z,42.60
2023-10-12T11:14:59.897Z,42.42
2023-10-12T11:15:56.677Z,42.68
2023-10-12T11:16:50.034Z,42.49
2023-10-12T11:17:57.863Z,42.87
2023-10-12T11:18:53.466Z,42.72
2023-10-12T11:19:51.198Z,42.91
2023-10-12T11:20:46.780Z,42.59
2023-10-12T11:21:47.302Z,42.81
2023-10-12T11:22:40.046Z,42.77
2023-10-12T11:23:35.335Z,42.39
2023-10-12T11:24:28.446Z,42.48
2023-10-12T11:25:24.181Z,43.18
2023-10-12T11:26:22.615Z,43.04
2023-10-12T11:27:30.240Z,42.94
2023-10-12T11:28:27.889Z,43.22
2023-10-12T11:29:20.826Z,43.14
2023-10-12T11:30:20.733Z,43.04
2023-10-12T11:31:22.139Z,42.99
2023-10-12T11:32:17.971Z,43.35
2023-10-12T11:33:11.012Z,43.48
2023-10-12T11:34:08.727Z,43.50
2023-10-12T11:35:08.075Z,43.37
2023-10-12T11:36:05.338Z,43.09
2023-10-12T11:36:59.356Z,43.03
2023-10-12T11:37:59.199Z,43.42
2023-10-12T11:38:59.870Z,43.19
2023-10-12T11:39:55.861Z,43.57
2023-10-12T11:40:54.172Z,43.30
2023-10-12T11:42:08.515Z,43.51
2023-10-12T11:43:01.367Z,43.30
2023-10-12T11:43:59.095Z,43.73
2023-10-12T11:44:55.646Z,43.27
2023-10-12T11:45:58.766Z,43.36
2023-10-12T11:46:55.912Z,43.62
2023-10-12T11:47:51.552Z,43.16
2023-10-12T11:48:44.346Z,43.18
2023-10-12T11:49:50.262Z,43.24
2023-10-12T11:50:46.492Z,43.20
2023-10-12T11:51:42.055Z,43.41
2023-10-12T11:52:39.214Z,43.13
2023-10-12T11:53:31.994Z,42.85
2023-10-12T11:54:34.384Z,43.05
2023-10-12T11:55:33.109Z,43.18
2023-10-12T11:56:31.699Z,43.13
2023-10-12T11:57:24.411Z,42.60
2023-10-12T11:58:20.173Z,42.80
2023-10-12T11:59:23.958Z,42.91
2023-10-12T12:00:23.135Z,42.51
2023-10-12T12:01:20.052Z,42.56
2023-10-12T12:02:17.890Z,42.73
2023-10-12T12:03:14.486Z,42.65
2023-10-12T12:04:12.143Z,42.71
2023-10-12T12:05:13.110Z,42.65
2023-10-12T12:06:12.655Z,42.36
2023-10-12T12:07:11.756Z,42.71
2023-10-12T12:08:07.776Z,42.32
2023-10-12T12:09:08.754Z,42.60
2023-10-12T12:10:03.175Z,42.48
2023-10-12T12:11:04.512Z,42.46
2023-10-12T12:12:01.989Z,42.38
2023-10-12T12:12:54.875Z,42.24
2023-10-12T12:13:53.593Z,42.52
2023-10-12T12:14:47.841Z,42.22
2023-10-12T12:15:44.793Z,42.28
2023-10-12T12:16:42.461Z,42.37
2023-10-12T12:17:36.596Z,42.27
2023-10-12T12:18:30.956Z,42.42
2023-10-12T12:19:26.769Z,41.91
2023-10-12T12:20:22.730Z,41.92
2023-10-12T12:21:17.489Z,42.02
2023-10-12T12:22:15.011Z,42.02
2023-10-12T12:23:11.232Z,42.07
2023-10-12T12:24:16.060Z,42.43
2023-10-12T12:25:33.234Z,42.35
2023-10-12T12:26:26.179Z,42.29
2023-10-12T12:27:39.034Z,41.97
2023-10-12T12:28:33.890Z,42.09
2023-10-12T12:29:45.748Z,41.96
2023-10-12T12:30:58.556Z,42.13
2023-10-12T12:31:56.157Z,41.76
2023-10-12T12:32:50.668Z,41.75
2023-10-12T12:33:45.228Z,41.84
2023-10-12T12:34:43.589Z,41.73
2023-10-12T12:35:37.649Z,41.90
2023-10-12T12:36:33.137Z,41.56
2023-10-12T12:37:26.559Z,41.50
2023-10-12T12:38:27.461Z,41.75
2023-10-12T12:39:26.614Z,41.43
2023-10-12T12:40:29.936Z,41.49
2023-10-12T12:41:28.248Z,41.45
2023-10-12T12:42:23.894Z,41.83
2023-10-12T12:43:16.644Z,41.73
2023-10-12T12:44:13.298Z,41.60
2023-10-12T12:45:07.628Z,41.54
2023-10-12T12:46:00.432Z,41.44